KBNO/BNO METAR and TAF weather

Enter ICAO airport designator
Station Type Date Time Source
KBNO METAR 2023/01/29 18:53 UTC NOAA

KBNO 291853Z AUTO 34013KT 10SM CLR M07/M16 A3009 RMK AO2 SLP226 T10721156 $


Station Type Date Time Source
KBNO Decoded METAR 2023/01/29 18:53 UTC NOAA

BURNS MUNICIPAL AIRPORT, OR, United States (KBNO) 43-36N 118-57W 1264M
Jan 29, 2023 - 01:53 PM EST / 2023.01.29 1853 UTC
Wind: from the NNW (340 degrees) at 15 MPH (13 KT):0
Visibility: 10 mile(s):0
Sky conditions: clear
Temperature: 19.0 F (-7.2 C)
Windchill: 5 F (-15 C):1
Dew Point: 3.9 F (-15.6 C)
Relative Humidity: 51%
Pressure (altimeter): 30.09 in. Hg (1018 hPa)
ob: KBNO 291853Z AUTO 34013KT 10SM CLR M07/M16 A3009 RMK AO2 SLP226 T10721156
cycle: 19

Station Type Date Time Source
KBNO TAF 2023/01/29 18:27 UTC NOAA

TAF KBNO 291724Z 2918/3018 32013KT P6SM SKC
FM300100 32007KT P6SM SKC

Example: see airport list